Time;durP1;ratioP1;P1;durP2;ratioP2;P2;SDS_P1;SDS_P2;PMS_P1;PMS_P2;Temp;Humidity;BMP_temperature;BMP_pressure;BME280_temperature;BME280_humidity;BME280_pressure;Samples;Min_cycle;Max_cycle;Signal;HPM_P1;HPM_P2
2023/04/19 00:01:11;;;;;;;4.40;2.90;;;12.70;99.90;;;;;;6297812;28;20484;-63
2023/04/19 00:04:14;;;;;;;3.00;2.70;;;12.70;99.90;;;;;;6296717;28;20473;-62
2023/04/19 00:07:19;;;;;;;3.10;2.80;;;12.70;99.90;;;;;;6281935;28;20489;-62
2023/04/19 00:10:22;;;;;;;3.20;3.00;;;12.80;99.90;;;;;;6286600;28;20534;-62
2023/04/19 00:13:26;;;;;;;3.30;3.07;;;12.70;99.90;;;;;;6301737;28;20477;-62
2023/04/19 00:16:30;;;;;;;6.80;3.07;;;12.70;99.90;;;;;;6301615;28;20465;-62
2023/04/19 00:19:33;;;;;;;3.33;3.00;;;12.80;99.90;;;;;;6286145;28;20486;-62
2023/04/19 00:22:36;;;;;;;3.37;3.10;;;12.70;99.90;;;;;;6276319;28;20466;-62
2023/04/19 00:25:39;;;;;;;4.10;3.07;;;12.70;99.90;;;;;;6276272;28;20941;-63
2023/04/19 00:28:44;;;;;;;4.73;3.03;;;12.70;99.90;;;;;;6276154;28;20474;-63
2023/04/19 00:31:47;;;;;;;3.60;3.30;;;12.60;99.90;;;;;;6276692;28;20462;-62
2023/04/19 00:34:51;;;;;;;3.43;3.23;;;12.50;99.90;;;;;;6276140;28;20482;-63
2023/04/19 00:37:54;;;;;;;4.20;3.23;;;12.50;99.90;;;;;;6300713;28;20481;-63
2023/04/19 00:40:57;;;;;;;2.83;2.63;;;12.50;99.90;;;;;;6300746;28;20465;-62
2023/04/19 00:44:02;;;;;;;3.33;2.73;;;12.50;99.90;;;;;;6300580;28;20968;-63
2023/04/19 00:47:05;;;;;;;3.20;2.90;;;12.50;99.90;;;;;;6300780;28;20469;-63
2023/04/19 00:50:09;;;;;;;4.80;2.70;;;12.40;99.90;;;;;;6300216;28;20483;-62
2023/04/19 00:53:13;;;;;;;3.60;3.30;;;12.40;99.90;;;;;;6300153;28;20465;-63
2023/04/19 00:56:17;;;;;;;3.50;3.10;;;12.40;99.90;;;;;;6300223;28;20968;-63
2023/04/19 00:59:22;;;;;;;3.30;3.10;;;12.40;99.90;;;;;;6300584;28;20964;-62
2023/04/19 01:02:27;;;;;;;2.93;2.70;;;12.40;99.90;;;;;;6299772;28;20952;-63
2023/04/19 01:05:30;;;;;;;3.37;3.10;;;12.40;99.90;;;;;;6300454;28;20473;-63
2023/04/19 01:08:34;;;;;;;3.17;2.87;;;12.40;99.90;;;;;;6299655;28;20477;-63
2023/04/19 01:11:37;;;;;;;3.27;3.00;;;12.50;99.90;;;;;;6299165;28;20598;-62
2023/04/19 01:14:41;;;;;;;3.40;3.10;;;12.50;99.90;;;;;;6299348;28;20481;-62
2023/04/19 01:17:44;;;;;;;2.97;2.77;;;12.50;99.90;;;;;;6299988;28;20503;-62
2023/04/19 01:20:50;;;;;;;3.63;3.33;;;12.60;99.90;;;;;;6299267;28;20812;-62
2023/04/19 01:23:55;;;;;;;3.23;3.03;;;12.60;99.90;;;;;;6299389;28;20486;-62
2023/04/19 01:26:58;;;;;;;3.20;3.00;;;12.60;99.90;;;;;;6299347;28;20480;-62
2023/04/19 01:30:01;;;;;;;3.40;2.83;;;12.50;99.90;;;;;;6300154;28;20465;-62
2023/04/19 01:33:04;;;;;;;2.90;2.70;;;12.60;99.90;;;;;;6299450;28;20480;-62
2023/04/19 01:36:08;;;;;;;3.47;3.17;;;12.60;99.90;;;;;;6299586;28;21083;-62
2023/04/19 01:39:12;;;;;;;4.87;3.07;;;12.60;99.90;;;;;;6299522;28;20481;-62
2023/04/19 01:42:16;;;;;;;2.70;2.50;;;12.50;99.90;;;;;;6298473;28;20576;-62
2023/04/19 01:45:19;;;;;;;4.07;3.23;;;12.50;99.90;;;;;;6298884;28;20550;-63
2023/04/19 01:48:22;;;;;;;4.63;3.40;;;12.50;99.90;;;;;;6298641;28;20457;-63
2023/04/19 01:51:26;;;;;;;2.60;2.40;;;12.40;99.90;;;;;;6299376;28;20453;-63
2023/04/19 01:54:30;;;;;;;2.90;2.70;;;12.40;99.90;;;;;;6298947;28;20464;-62
2023/04/19 01:57:33;;;;;;;4.07;3.00;;;12.50;99.90;;;;;;6299045;28;20445;-63
2023/04/19 02:00:36;;;;;;;3.10;2.90;;;12.50;99.90;;;;;;6298871;28;20536;-63
2023/04/19 02:03:40;;;;;;;3.43;3.23;;;12.50;99.90;;;;;;6298768;28;20485;-62
2023/04/19 02:06:44;;;;;;;2.80;2.60;;;12.40;99.90;;;;;;6299155;28;20469;-62
2023/04/19 02:09:48;;;;;;;3.67;3.00;;;12.40;99.90;;;;;;6299170;28;20523;-62
2023/04/19 02:12:51;;;;;;;2.97;2.67;;;12.30;99.90;;;;;;6299482;28;20944;-62
2023/04/19 02:15:54;;;;;;;3.80;3.50;;;12.30;99.90;;;;;;6281628;22;20957;-63
2023/04/19 02:18:57;;;;;;;3.53;3.23;;;12.30;99.90;;;;;;6273295;28;20462;-62
2023/04/19 02:22:01;;;;;;;3.80;3.50;;;12.20;99.90;;;;;;6273133;28;20478;-62
2023/04/19 02:25:07;;;;;;;5.40;3.00;;;12.20;99.90;;;;;;6273256;28;21162;-62
2023/04/19 02:28:10;;;;;;;3.10;2.90;;;12.20;99.90;;;;;;6273668;28;20470;-62
2023/04/19 02:31:13;;;;;;;3.60;3.30;;;12.20;99.90;;;;;;6274224;28;20800;-62
2023/04/19 02:34:17;;;;;;;4.40;4.00;;;12.10;99.90;;;;;;6273933;28;20473;-62
2023/04/19 02:37:20;;;;;;;3.37;3.07;;;12.00;99.90;;;;;;6273678;28;20470;-63
2023/04/19 02:40:25;;;;;;;4.53;4.10;;;12.00;99.90;;;;;;6273429;28;20474;-62
2023/04/19 02:43:28;;;;;;;3.53;3.23;;;12.00;99.90;;;;;;6273337;28;20488;-63
2023/04/19 02:46:31;;;;;;;4.83;4.43;;;12.00;99.90;;;;;;6273647;28;20478;-63
2023/04/19 02:49:35;;;;;;;5.53;5.03;;;12.00;99.90;;;;;;6273734;28;20499;-62
2023/04/19 02:52:39;;;;;;;6.60;5.00;;;12.00;99.90;;;;;;6273465;28;20466;-63
2023/04/19 02:55:44;;;;;;;4.43;3.87;;;12.00;99.90;;;;;;6273485;28;20482;-63
2023/04/19 02:58:47;;;;;;;7.27;4.57;;;11.90;99.90;;;;;;6273518;28;20470;-62
2023/04/19 03:01:50;;;;;;;5.47;4.60;;;11.90;99.90;;;;;;6273717;28;20484;-63
2023/04/19 03:04:54;;;;;;;6.30;4.70;;;11.80;99.90;;;;;;6273365;28;20545;-62
2023/04/19 03:07:57;;;;;;;5.50;5.00;;;11.80;99.90;;;;;;6273554;28;20469;-63
2023/04/19 03:11:01;;;;;;;5.83;5.17;;;11.70;99.90;;;;;;6273201;28;20762;-62
2023/04/19 03:14:05;;;;;;;6.00;4.80;;;11.70;99.90;;;;;;6276291;28;20588;-62
2023/04/19 03:17:08;;;;;;;4.60;4.20;;;11.60;99.90;;;;;;6278011;28;20489;-62
2023/04/19 03:20:12;;;;;;;4.40;4.10;;;11.70;99.90;;;;;;6277829;28;20466;-62
2023/04/19 03:23:15;;;;;;;4.67;4.23;;;11.60;99.90;;;;;;6277795;28;20478;-63
2023/04/19 03:26:19;;;;;;;5.00;4.60;;;11.50;99.90;;;;;;6277766;28;20798;-62
2023/04/19 03:29:23;;;;;;;5.73;5.00;;;11.50;99.90;;;;;;6277716;28;20539;-63
2023/04/19 03:32:26;;;;;;;4.47;4.10;;;11.40;99.90;;;;;;6277491;28;20815;-63
2023/04/19 03:35:31;;;;;;;4.70;4.30;;;11.40;99.90;;;;;;6277250;28;20470;-63
2023/04/19 03:38:34;;;;;;;5.80;5.10;;;11.40;99.90;;;;;;6277114;28;20481;-63
2023/04/19 03:41:40;;;;;;;5.27;4.77;;;11.30;99.90;;;;;;6277015;28;20473;-63
2023/04/19 03:44:43;;;;;;;5.23;4.80;;;11.20;99.90;;;;;;6277193;28;20559;-63
2023/04/19 03:47:46;;;;;;;5.67;4.17;;;11.20;99.90;;;;;;6277311;28;20477;-63
2023/04/19 03:50:50;;;;;;;4.77;4.30;;;11.10;99.90;;;;;;6276978;28;20466;-63
2023/04/19 03:53:53;;;;;;;5.43;4.70;;;11.00;99.90;;;;;;6276774;28;20470;-63
2023/04/19 03:56:57;;;;;;;4.43;4.03;;;11.00;99.90;;;;;;6276962;28;20469;-63
2023/04/19 04:00:00;;;;;;;6.80;4.70;;;10.90;99.90;;;;;;6276951;28;20473;-63
2023/04/19 04:03:04;;;;;;;5.30;4.83;;;10.90;99.90;;;;;;6276535;28;20474;-63
2023/04/19 04:06:07;;;;;;;5.53;4.80;;;10.80;99.90;;;;;;6276752;28;20470;-63
2023/04/19 04:09:10;;;;;;;5.03;4.63;;;10.70;99.90;;;;;;6276546;28;20485;-63
2023/04/19 04:12:15;;;;;;;5.43;4.10;;;10.70;99.90;;;;;;6276810;28;20465;-63
2023/04/19 04:15:18;;;;;;;4.93;4.00;;;10.60;99.90;;;;;;6275899;28;20477;-63
2023/04/19 04:18:22;;;;;;;4.90;4.50;;;10.50;99.90;;;;;;6276420;28;20813;-63
2023/04/19 04:21:26;;;;;;;4.90;4.50;;;10.40;99.90;;;;;;6276327;28;20454;-63
2023/04/19 04:24:31;;;;;;;6.10;4.50;;;10.40;99.90;;;;;;6250511;28;20490;-63
2023/04/19 04:27:36;;;;;;;5.07;4.67;;;10.40;99.90;;;;;;6251283;28;20438;-63
2023/04/19 04:30:40;;;;;;;5.60;4.97;;;10.40;99.90;;;;;;6251661;28;20439;-63
2023/04/19 04:33:44;;;;;;;4.83;4.43;;;10.40;99.90;;;;;;6251307;28;20463;-63
2023/04/19 04:36:49;;;;;;;6.27;4.70;;;10.40;99.90;;;;;;6261627;28;20466;-62
2023/04/19 04:39:52;;;;;;;6.13;5.53;;;10.40;99.90;;;;;;6263604;28;20470;-63
2023/04/19 04:42:59;;;;;;;6.17;5.57;;;10.40;99.90;;;;;;6255175;28;20463;-63
2023/04/19 04:46:03;;;;;;;5.83;5.30;;;10.40;99.90;;;;;;6250699;28;20954;-63
2023/04/19 04:49:06;;;;;;;5.13;4.63;;;10.40;99.90;;;;;;6251269;28;20477;-65
2023/04/19 04:52:09;;;;;;;6.27;5.20;;;10.50;99.90;;;;;;6251110;28;20907;-65
2023/04/19 04:55:12;;;;;;;6.37;5.77;;;10.50;99.90;;;;;;6250527;28;20801;-66
2023/04/19 04:58:17;;;;;;;9.17;7.30;;;10.50;99.90;;;;;;6250854;28;20478;-66
2023/04/19 05:01:22;;;;;;;15.50;10.17;;;10.50;99.90;;;;;;6250948;28;20474;-66
2023/04/19 05:04:26;;;;;;;38.93;21.70;;;10.60;99.90;;;;;;6250802;28;20490;-63
2023/04/19 05:07:29;;;;;;;22.73;14.17;;;10.60;99.90;;;;;;6250654;28;20560;-63
2023/04/19 05:10:32;;;;;;;9.93;6.50;;;10.70;99.90;;;;;;6250803;28;20471;-65
2023/04/19 05:13:37;;;;;;;7.10;4.87;;;10.80;99.90;;;;;;6250140;28;20493;-65
2023/04/19 05:16:40;;;;;;;9.57;5.70;;;11.00;99.90;;;;;;6250647;28;20475;-66
2023/04/19 05:19:43;;;;;;;5.10;4.70;;;11.10;99.90;;;;;;6251258;28;20477;-65
2023/04/19 05:22:47;;;;;;;4.97;4.57;;;11.40;99.90;;;;;;6250094;28;20482;-65
2023/04/19 05:25:50;;;;;;;4.57;4.17;;;11.60;99.90;;;;;;6250042;28;20482;-66
2023/04/19 05:28:55;;;;;;;7.00;4.40;;;11.90;99.90;;;;;;6250190;28;20494;-66
2023/04/19 05:31:58;;;;;;;4.60;4.20;;;12.20;99.90;;;;;;6249707;28;20994;-66
2023/04/19 05:35:01;;;;;;;6.27;4.63;;;12.40;99.90;;;;;;6250302;28;20482;-65
2023/04/19 05:38:04;;;;;;;5.60;4.37;;;12.60;99.90;;;;;;6249722;28;20471;-65
2023/04/19 05:41:07;;;;;;;6.57;5.30;;;12.80;99.90;;;;;;6250225;28;20478;-65
2023/04/19 05:44:12;;;;;;;4.77;4.37;;;13.10;99.90;;;;;;6250404;28;20490;-63
2023/04/19 05:47:16;;;;;;;5.23;4.73;;;13.40;99.90;;;;;;6250392;28;20471;-64
2023/04/19 05:50:19;;;;;;;9.97;5.90;;;13.90;99.90;;;;;;6250623;28;20466;-65
2023/04/19 05:53:23;;;;;;;5.30;4.87;;;14.60;99.10;;;;;;6250034;28;20479;-65
2023/04/19 05:56:26;;;;;;;5.13;4.70;;;15.30;97.60;;;;;;6250416;28;20560;-65
2023/04/19 05:59:30;;;;;;;8.10;5.27;;;15.80;95.70;;;;;;6249748;28;20478;-64
2023/04/19 06:02:33;;;;;;;5.33;4.70;;;16.10;94.90;;;;;;6250732;28;20485;-65
2023/04/19 06:05:39;;;;;;;6.80;5.33;;;16.20;94.20;;;;;;6249908;28;20475;-65
2023/04/19 06:08:42;;;;;;;5.17;4.67;;;16.40;93.30;;;;;;6245205;28;20478;-65
2023/04/19 06:11:46;;;;;;;5.40;4.80;;;16.50;92.90;;;;;;6249760;28;20481;-65
2023/04/19 06:14:54;;;;;;;6.90;6.20;;;16.50;92.60;;;;;;6249407;28;20479;-65
2023/04/19 06:17:57;;;;;;;4.80;4.30;;;16.70;92.70;;;;;;6249264;28;20467;-65
2023/04/19 06:21:01;;;;;;;6.00;5.40;;;16.80;91.50;;;;;;6249881;28;20463;-65
2023/04/19 06:24:06;;;;;;;5.40;4.90;;;16.80;90.90;;;;;;6249881;28;20869;-66
2023/04/19 06:27:09;;;;;;;4.83;4.43;;;16.70;90.20;;;;;;6250387;28;20919;-65
2023/04/19 06:30:14;;;;;;;5.93;4.23;;;16.70;90.00;;;;;;6249657;28;21004;-66
2023/04/19 06:33:17;;;;;;;5.07;4.67;;;16.90;88.80;;;;;;6250052;28;20947;-64
2023/04/19 06:36:20;;;;;;;5.23;4.73;;;17.20;86.00;;;;;;6249530;28;20776;-65
2023/04/19 06:39:23;;;;;;;5.30;4.80;;;17.30;84.70;;;;;;6249410;28;20482;-65
2023/04/19 06:42:26;;;;;;;5.30;4.43;;;17.40;84.00;;;;;;6256018;28;20780;-65
2023/04/19 06:45:31;;;;;;;6.07;5.37;;;17.60;81.60;;;;;;6261793;28;20488;-65
2023/04/19 06:48:35;;;;;;;4.80;4.40;;;18.20;80.00;;;;;;6265798;28;20485;-65
2023/04/19 06:51:39;;;;;;;5.93;5.47;;;18.40;77.00;;;;;;6273849;28;20438;-65
2023/04/19 06:54:42;;;;;;;6.63;5.40;;;18.90;75.70;;;;;;6279277;28;20223;-65
2023/04/19 06:57:45;;;;;;;5.53;5.03;;;19.80;71.70;;;;;;6279222;28;20653;-65
2023/04/19 07:00:50;;;;;;;6.67;4.77;;;20.60;67.80;;;;;;6279223;28;20308;-65
2023/04/19 07:03:53;;;;;;;5.47;4.97;;;21.50;63.80;;;;;;6278978;28;20235;-65
2023/04/19 07:06:59;;;;;;;5.70;5.10;;;22.60;60.50;;;;;;6279202;28;20228;-65
2023/04/19 07:10:03;;;;;;;5.00;4.50;;;23.10;56.30;;;;;;6279125;28;20231;-66
2023/04/19 07:13:06;;;;;;;4.90;4.47;;;23.90;54.10;;;;;;6282115;28;20234;-66
2023/04/19 07:16:10;;;;;;;7.17;5.70;;;24.50;50.60;;;;;;6257170;28;20224;-66
2023/04/19 07:19:13;;;;;;;5.27;4.87;;;25.00;49.00;;;;;;6265142;28;20699;-67
2023/04/19 07:22:17;;;;;;;5.20;4.80;;;25.60;46.40;;;;;;6266223;28;20224;-66
2023/04/19 07:25:20;;;;;;;5.73;5.03;;;26.40;45.00;;;;;;6267676;28;20227;-66
2023/04/19 07:28:23;;;;;;;5.20;4.70;;;26.70;42.50;;;;;;6265549;28;20227;-65
2023/04/19 07:31:28;;;;;;;5.80;5.23;;;26.60;42.00;;;;;;6263309;28;20561;-66
2023/04/19 07:34:31;;;;;;;5.30;4.80;;;27.30;39.90;;;;;;6268984;28;20227;-66
2023/04/19 07:37:34;;;;;;;5.63;5.07;;;28.50;38.00;;;;;;6263517;28;20339;-66
2023/04/19 07:40:37;;;;;;;5.83;5.33;;;29.80;35.10;;;;;;6264363;28;20659;-66
2023/04/19 07:43:41;;;;;;;5.40;4.87;;;29.90;32.50;;;;;;6268283;28;20231;-66
2023/04/19 07:46:45;;;;;;;5.20;4.80;;;30.90;32.50;;;;;;6267764;28;20227;-66
2023/04/19 07:49:52;;;;;;;5.30;4.85;;;32.10;30.10;;;;;;6264747;28;20226;-66
2023/04/19 07:52:55;;;;;;;8.23;5.43;;;32.90;28.40;;;;;;6264036;28;20231;-66
2023/04/19 07:55:58;;;;;;;7.22;5.15;;;34.00;26.40;;;;;;6265725;28;20579;-63
2023/04/19 07:59:02;;;;;;;5.28;4.80;;;34.00;25.10;;;;;;6261620;28;20215;-63
2023/04/19 08:02:12;;;;;;;5.00;4.55;;;34.50;24.60;;;;;;6274781;28;20230;-66
2023/04/19 08:05:17;;;;;;;4.53;4.13;;;33.90;24.10;;;;;;6277816;28;20382;-67
2023/04/19 08:08:20;;;;;;;5.20;4.70;;;33.90;24.80;;;;;;6277261;28;20233;-65
2023/04/19 08:11:24;;;;;;;4.55;4.15;;;34.90;23.80;;;;;;6273745;28;20265;-66
2023/04/19 08:14:27;;;;;;;6.05;5.47;;;35.40;22.70;;;;;;6276827;28;20238;-66
2023/04/19 08:17:47;;;;;;;5.38;4.72;;;35.80;22.20;;;;;;6276558;28;20227;-62
2023/04/19 08:20:50;;;;;;;5.50;5.10;;;36.10;22.40;;;;;;6276914;28;20301;-65
2023/04/19 08:23:53;;;;;;;5.05;4.75;;;37.10;21.30;;;;;;6276458;28;20231;-65
2023/04/19 08:26:56;;;;;;;5.47;4.97;;;37.70;20.80;;;;;;6276855;28;20234;-65
2023/04/19 08:30:02;;;;;;;4.80;4.50;;;38.60;19.80;;;;;;6276635;28;20233;-66
2023/04/19 08:33:07;;;;;;;4.75;4.35;;;39.30;19.00;;;;;;6276714;28;20233;-64
2023/04/19 08:36:12;;;;;;;5.03;4.63;;;39.10;18.40;;;;;;6276387;28;20222;-66
2023/04/19 08:39:21;;;;;;;6.32;4.68;;;39.40;18.20;;;;;;6276675;28;20548;-65
2023/04/19 08:42:35;;;;;;;5.75;4.75;;;39.90;17.80;;;;;;6276336;28;20216;-66
2023/04/19 08:45:40;;;;;;;4.85;4.50;;;40.30;17.60;;;;;;6275760;28;20689;-65
2023/04/19 08:48:46;;;;;;;5.60;5.10;;;41.20;16.90;;;;;;6276519;28;20203;-63
2023/04/19 08:51:50;;;;;;;5.20;4.80;;;41.10;16.50;;;;;;6269964;28;20231;-63
2023/04/19 08:54:54;;;;;;;4.40;4.10;;;39.30;16.70;;;;;;6275319;28;20258;-63
2023/04/19 08:57:58;;;;;;;6.05;4.50;;;36.90;18.10;;;;;;6265577;28;20227;-63
2023/04/19 09:01:04;;;;;;;7.07;5.03;;;34.90;19.00;;;;;;6273102;28;20249;-63
2023/04/19 09:04:08;;;;;;;5.72;5.30;;;33.20;20.70;;;;;;6275370;28;20577;-63
2023/04/19 09:07:31;;;;;;;5.00;4.60;;;34.70;20.60;;;;;;6275237;28;20573;-63
2023/04/19 09:10:35;;;;;;;5.07;4.32;;;34.90;19.90;;;;;;6267911;28;20235;-63
2023/04/19 09:13:39;;;;;;;6.13;4.40;;;33.70;20.30;;;;;;6266102;28;20246;-63
2023/04/19 09:16:43;;;;;;;5.57;5.07;;;31.60;21.90;;;;;;6275524;28;20246;-62
2023/04/19 09:19:48;;;;;;;6.03;5.43;;;29.80;23.30;;;;;;6274712;28;20231;-62
2023/04/19 09:23:04;;;;;;;7.50;5.30;;;28.00;25.00;;;;;;6275370;28;20337;-63
2023/04/19 09:26:07;;;;;;;6.10;5.60;;;26.70;26.60;;;;;;6274832;28;20571;-62
2023/04/19 09:29:26;;;;;;;7.30;5.27;;;25.30;28.00;;;;;;6275482;28;20237;-62
2023/04/19 09:32:44;;;;;;;5.07;4.50;;;24.20;29.70;;;;;;6275199;28;20231;-62
2023/04/19 09:35:49;;;;;;;6.20;4.77;;;23.00;31.00;;;;;;6265781;28;20228;-62
2023/04/19 09:38:52;;;;;;;5.70;5.10;;;22.00;32.20;;;;;;6275055;28;20304;-61
2023/04/19 09:41:55;;;;;;;5.87;4.30;;;21.40;33.60;;;;;;6274410;28;20576;-64
2023/04/19 09:44:59;;;;;;;4.97;4.57;;;20.80;35.00;;;;;;6275573;28;20236;-64
2023/04/19 09:48:07;;;;;;;6.07;4.60;;;20.30;36.20;;;;;;6277739;28;20600;-63
2023/04/19 09:51:12;;;;;;;4.83;4.43;;;20.10;37.20;;;;;;6275564;28;20285;-66
2023/04/19 09:54:19;;;;;;;5.40;4.40;;;20.00;37.40;;;;;;6274914;28;20239;-65
2023/04/19 09:57:22;;;;;;;6.23;5.57;;;19.90;37.80;;;;;;6274808;28;20289;-64
2023/04/19 10:00:25;;;;;;;4.93;4.53;;;19.80;37.30;;;;;;6274505;28;20235;-64
2023/04/19 10:03:32;;;;;;;4.73;4.27;;;19.70;37.80;;;;;;6272945;28;20656;-65
2023/04/19 10:06:37;;;;;;;6.30;4.20;;;19.60;37.40;;;;;;6249615;28;20243;-64
2023/04/19 10:10:02;;;;;;;5.93;5.00;;;19.50;37.30;;;;;;6229871;28;20259;-62
2023/04/19 10:13:23;;;;;;;6.10;5.60;;;19.50;38.00;;;;;;6225010;28;20315;-62
2023/04/19 10:16:31;;;;;;;5.40;4.63;;;19.70;38.40;;;;;;6224817;28;20304;-64
2023/04/19 10:19:37;;;;;;;7.43;5.30;;;19.60;38.40;;;;;;6224576;28;20647;-62
2023/04/19 10:22:41;;;;;;;5.50;4.90;;;19.60;38.90;;;;;;6234091;28;20240;-63
2023/04/19 10:25:46;;;;;;;8.17;6.33;;;19.50;38.80;;;;;;6249189;28;20244;-62
2023/04/19 10:28:50;;;;;;;6.00;5.50;;;19.20;40.40;;;;;;6249304;28;20232;-62
2023/04/19 10:31:56;;;;;;;6.40;5.90;;;18.90;41.80;;;;;;6249556;28;20232;-62
2023/04/19 10:35:04;;;;;;;5.77;5.27;;;18.60;42.50;;;;;;6249118;28;20240;-62
2023/04/19 10:38:11;;;;;;;5.70;5.20;;;18.40;42.90;;;;;;6249336;28;20247;-62
2023/04/19 10:41:15;;;;;;;5.93;5.43;;;18.10;43.50;;;;;;6249442;28;20541;-62
2023/04/19 10:44:23;;;;;;;5.47;4.83;;;17.60;44.90;;;;;;6249518;28;20471;-62
2023/04/19 10:47:41;;;;;;;7.27;6.67;;;17.40;46.60;;;;;;6249651;28;20483;-62
2023/04/19 10:51:00;;;;;;;7.30;6.63;;;17.10;49.80;;;;;;6249135;28;20787;-63
2023/04/19 10:54:05;;;;;;;7.60;6.80;;;16.80;51.40;;;;;;6249016;28;20482;-62
2023/04/19 10:57:10;;;;;;;7.90;7.20;;;16.70;52.60;;;;;;6249844;28;20475;-62
2023/04/19 11:00:20;;;;;;;8.73;7.50;;;16.80;54.00;;;;;;6249802;28;20470;-61
2023/04/19 11:03:53;;;;;;;8.47;7.70;;;16.90;55.80;;;;;;6248713;28;20471;-61
2023/04/19 11:07:02;;;;;;;7.90;6.37;;;17.00;58.70;;;;;;6248755;28;20478;-64
2023/04/19 11:10:08;;;;;;;7.07;6.47;;;17.00;60.20;;;;;;6249241;28;20462;-64
2023/04/19 11:13:11;;;;;;;5.37;4.90;;;16.80;57.10;;;;;;6248465;28;20471;-64
2023/04/19 11:16:15;;;;;;;6.40;5.80;;;16.60;57.00;;;;;;6249082;28;20483;-64
2023/04/19 11:19:21;;;;;;;4.90;4.40;;;16.50;57.90;;;;;;6249088;28;20482;-65
2023/04/19 11:22:32;;;;;;;7.13;6.43;;;16.40;58.40;;;;;;6248974;28;20463;-62
2023/04/19 11:25:36;;;;;;;8.27;6.97;;;16.30;62.70;;;;;;6239838;28;20487;-62
2023/04/19 11:28:40;;;;;;;6.93;6.23;;;16.20;66.40;;;;;;6241977;28;20470;-62
2023/04/19 11:31:45;;;;;;;7.00;6.30;;;16.20;68.60;;;;;;6249014;28;20874;-62
2023/04/19 11:34:48;;;;;;;7.80;6.93;;;16.20;71.40;;;;;;6249741;28;20471;-62
2023/04/19 11:37:52;;;;;;;8.17;7.37;;;16.10;74.40;;;;;;6252913;28;20471;-62
2023/04/19 11:41:00;;;;;;;7.90;7.37;;;15.90;77.30;;;;;;6252757;28;20985;-62
2023/04/19 11:44:03;;;;;;;9.37;8.47;;;15.60;80.50;;;;;;6252800;28;20470;-61
2023/04/19 11:47:07;;;;;;;8.90;8.10;;;15.40;83.70;;;;;;6252778;28;20493;-61
2023/04/19 11:50:33;;;;;;;8.83;7.97;;;15.40;84.40;;;;;;6252660;28;20462;-61
2023/04/19 11:53:36;;;;;;;9.33;8.30;;;15.40;86.60;;;;;;6252207;28;20475;-62
2023/04/19 11:56:58;;;;;;;11.30;10.33;;;15.40;89.60;;;;;;6252829;28;20550;-61
2023/04/19 12:00:06;;;;;;;9.43;8.43;;;15.40;90.70;;;;;;6252187;28;20554;-61
2023/04/19 12:03:10;;;;;;;11.13;9.97;;;15.50;91.70;;;;;;6246231;28;20463;-62
2023/04/19 12:06:14;;;;;;;13.03;11.40;;;15.40;92.30;;;;;;6252491;28;20502;-61
2023/04/19 12:09:21;;;;;;;13.60;12.20;;;15.30;93.40;;;;;;6252182;28;20950;-62
2023/04/19 12:12:33;;;;;;;13.17;11.90;;;15.20;94.70;;;;;;6235136;28;20527;-69
2023/04/19 12:15:47;;;;;;;12.63;11.53;;;15.00;96.00;;;;;;6226532;28;20498;-62
2023/04/19 12:18:51;;;;;;;12.50;11.30;;;15.10;97.00;;;;;;6222567;28;20468;-62
2023/04/19 12:22:08;;;;;;;10.70;9.60;;;15.10;97.70;;;;;;6227983;28;20475;-62
2023/04/19 12:25:11;;;;;;;12.20;10.10;;;15.30;97.80;;;;;;6227866;28;20514;-62
2023/04/19 12:28:16;;;;;;;12.27;11.07;;;15.40;97.50;;;;;;6227004;28;20472;-62
2023/04/19 12:31:20;;;;;;;13.83;10.87;;;15.50;97.60;;;;;;6227282;28;20468;-62
2023/04/19 12:34:24;;;;;;;12.27;10.80;;;15.70;98.00;;;;;;6226929;28;20479;-62
2023/04/19 12:37:27;;;;;;;12.67;11.33;;;15.90;96.90;;;;;;6227058;28;20472;-62
2023/04/19 12:40:30;;;;;;;10.53;9.53;;;16.30;97.60;;;;;;6227481;28;20543;-61
2023/04/19 12:43:35;;;;;;;12.83;11.63;;;16.90;97.10;;;;;;6227089;28;20472;-62
2023/04/19 12:46:38;;;;;;;11.20;10.20;;;17.50;94.20;;;;;;6228155;28;20476;-62
2023/04/19 12:49:41;;;;;;;12.47;11.07;;;18.10;92.90;;;;;;6227173;28;20491;-62
2023/04/19 12:52:45;;;;;;;11.83;10.90;;;18.20;91.60;;;;;;6226717;28;20236;-62
2023/04/19 12:55:49;;;;;;;14.57;13.07;;;18.20;91.50;;;;;;6226437;28;20483;-62
2023/04/19 12:58:53;;;;;;;14.27;12.93;;;18.50;91.40;;;;;;6226702;28;20229;-62
2023/04/19 13:01:57;;;;;;;11.80;10.73;;;18.60;89.60;;;;;;6232715;28;20235;-62
2023/04/19 13:05:00;;;;;;;11.03;9.97;;;18.20;87.40;;;;;;6250868;28;20250;-62
2023/04/19 13:08:04;;;;;;;11.00;10.10;;;17.70;88.20;;;;;;6250641;28;20560;-62
2023/04/19 13:11:07;;;;;;;9.80;9.00;;;17.60;90.00;;;;;;6250748;28;20228;-62
2023/04/19 13:14:12;;;;;;;12.17;10.43;;;17.80;88.80;;;;;;6250161;28;20490;-62
2023/04/19 13:17:15;;;;;;;12.53;11.33;;;17.60;90.00;;;;;;6250423;28;20482;-62
2023/04/19 13:20:19;;;;;;;12.17;11.03;;;18.10;90.00;;;;;;6250248;28;20975;-65
2023/04/19 13:23:22;;;;;;;10.53;9.53;;;18.60;89.30;;;;;;6246126;28;20240;-65
2023/04/19 13:26:25;;;;;;;12.03;10.93;;;18.80;87.80;;;;;;6250639;28;20235;-62
2023/04/19 13:29:30;;;;;;;12.73;11.50;;;18.40;87.00;;;;;;6250285;28;20565;-63
2023/04/19 13:32:34;;;;;;;11.60;10.40;;;18.20;85.90;;;;;;6250051;28;20570;-63
2023/04/19 13:35:37;;;;;;;12.80;9.93;;;18.00;85.30;;;;;;6250266;28;20481;-62
2023/04/19 13:38:40;;;;;;;10.90;9.80;;;17.60;87.20;;;;;;6250107;28;20470;-62
2023/04/19 13:41:43;;;;;;;10.40;9.50;;;17.40;86.00;;;;;;6250112;28;20471;-62
2023/04/19 13:44:48;;;;;;;11.37;10.27;;;17.30;85.70;;;;;;6250078;28;20475;-62
2023/04/19 13:47:52;;;;;;;10.80;9.80;;;17.30;85.20;;;;;;6249905;28;20481;-63
2023/04/19 13:50:56;;;;;;;11.87;10.80;;;17.30;86.00;;;;;;6250532;28;20481;-66
2023/04/19 13:53:59;;;;;;;15.63;14.00;;;17.50;85.10;;;;;;6250352;28;20605;-65
2023/04/19 13:57:02;;;;;;;14.00;11.97;;;17.20;86.30;;;;;;6250229;28;20475;-65
2023/04/19 14:00:08;;;;;;;11.47;10.47;;;16.70;87.30;;;;;;6249444;28;20483;-65
2023/04/19 14:03:12;;;;;;;12.60;11.40;;;16.60;89.50;;;;;;6249644;28;20803;-66
2023/04/19 14:06:15;;;;;;;14.27;12.90;;;16.60;89.90;;;;;;6249012;28;20970;-63
2023/04/19 14:09:18;;;;;;;14.40;13.00;;;16.30;90.60;;;;;;6249402;28;20502;-62
2023/04/19 14:12:22;;;;;;;11.60;10.50;;;16.30;90.90;;;;;;6249262;28;20471;-62
2023/04/19 14:15:26;;;;;;;12.77;11.57;;;16.30;90.90;;;;;;6249362;28;20478;-62
2023/04/19 14:18:29;;;;;;;11.27;10.17;;;16.40;91.20;;;;;;6248714;28;20459;-61
2023/04/19 14:21:32;;;;;;;12.30;11.10;;;16.30;91.10;;;;;;6240376;28;20443;-62
2023/04/19 14:24:36;;;;;;;11.00;9.90;;;16.20;91.10;;;;;;6232038;28;20464;-62
2023/04/19 14:27:39;;;;;;;11.40;10.33;;;16.30;91.30;;;;;;6231553;28;20567;-62
2023/04/19 14:30:43;;;;;;;11.03;10.00;;;16.30;91.30;;;;;;6235119;28;20450;-62
2023/04/19 14:33:46;;;;;;;10.70;9.60;;;16.50;91.30;;;;;;6234667;28;20463;-62
2023/04/19 14:36:50;;;;;;;11.70;10.50;;;16.70;90.40;;;;;;6230007;28;20471;-63
2023/04/19 14:39:53;;;;;;;12.23;10.83;;;16.60;90.30;;;;;;6230955;28;20941;-63
2023/04/19 14:42:56;;;;;;;12.10;11.00;;;16.50;90.60;;;;;;6237206;28;20467;-63
2023/04/19 14:46:01;;;;;;;11.27;10.37;;;16.30;90.70;;;;;;6235294;28;20958;-62
2023/04/19 14:49:04;;;;;;;12.33;11.13;;;16.50;91.60;;;;;;6241971;28;20467;-62
2023/04/19 14:52:08;;;;;;;13.70;11.70;;;16.60;91.90;;;;;;6249057;28;20474;-64
2023/04/19 14:55:11;;;;;;;13.73;12.33;;;16.50;91.30;;;;;;6249765;28;20478;-65
2023/04/19 14:58:14;;;;;;;13.40;12.23;;;16.10;91.80;;;;;;6244438;28;20471;-65
2023/04/19 15:01:21;;;;;;;13.70;11.97;;;15.80;92.90;;;;;;6248236;28;20996;-64
2023/04/19 15:04:25;;;;;;;11.90;10.70;;;15.60;93.20;;;;;;6224410;28;20482;-67
2023/04/19 15:07:28;;;;;;;6.40;5.80;;;15.40;93.80;;;;;;6225434;28;20479;-66
2023/04/19 15:10:31;;;;;;;5.03;4.63;;;15.30;92.50;;;;;;6252889;28;20520;-64
2023/04/19 15:13:35;;;;;;;4.80;4.40;;;15.20;92.80;;;;;;6251334;28;20479;-62
2023/04/19 15:16:39;;;;;;;5.60;5.10;;;15.10;93.40;;;;;;6253551;28;20474;-63
2023/04/19 15:19:43;;;;;;;5.77;5.27;;;15.00;94.60;;;;;;6253674;28;20546;-63
2023/04/19 15:22:46;;;;;;;6.67;6.07;;;14.90;96.10;;;;;;6253578;28;20977;-63
2023/04/19 15:25:49;;;;;;;5.43;5.03;;;14.70;97.50;;;;;;6253199;28;20478;-63
2023/04/19 15:28:54;;;;;;;7.37;6.17;;;14.60;98.60;;;;;;6254017;28;20483;-62
2023/04/19 15:31:59;;;;;;;6.57;5.97;;;14.60;99.90;;;;;;6252974;28;20481;-64
2023/04/19 15:35:02;;;;;;;6.90;6.30;;;14.50;99.90;;;;;;6254099;28;20474;-64
2023/04/19 15:38:05;;;;;;;6.20;5.60;;;14.50;99.90;;;;;;6252938;28;20973;-64
2023/04/19 15:41:08;;;;;;;5.93;5.43;;;14.40;99.90;;;;;;6253405;28;20477;-64
2023/04/19 15:44:11;;;;;;;6.37;5.50;;;14.40;99.90;;;;;;6252784;28;20796;-64
2023/04/19 15:47:16;;;;;;;5.77;5.27;;;14.30;99.90;;;;;;6252889;28;20467;-64
2023/04/19 15:50:19;;;;;;;5.67;5.17;;;14.20;99.90;;;;;;6252742;28;20975;-64
2023/04/19 15:53:22;;;;;;;6.40;5.70;;;14.00;99.90;;;;;;6252955;28;20485;-64
2023/04/19 15:56:26;;;;;;;5.83;5.30;;;13.90;99.90;;;;;;6252939;28;20474;-64